Aérodrome :
LOGIN :

S'inscrire | Disclaimer

   EN    FR    IT 

 










Légende :    VFR   VFR Marginal   IFR   IFR Intensif   IFR Très Intensif
Visi : 
Plafond : 
>= 8 km
>= 3000ft
5 à 8 km
1000 à 3000 ft
1500m à 5 km
500 à 1000 ft
800 à 1500m
200 à 500 ft
< 800m
< 200 ft
Symboles :   Orages  Brouillard  Fortes neiges  Fortes précipitations  Vent > 20 kt
SIGMETs :   Divers  Orages  Givrage  Turbulence  Onde Orograph.  Cendres Volcan.






- Altitude de l'aérodrome : 527 ft
- Code IATA : DBV


LDDU - Dubrovnik

DERNIER METAR :
  • 241000Z 17010KT 140V200 9999 FEW033 SCT040 13/06 Q1009 NOSIG

METARs EXPIRÉS :
  • 240930Z 17011KT 140V200 9999 FEW030 SCT041 14/06 Q1009 NOSIG
  • 240900Z 17010KT 140V200 9999 FEW028 13/08 Q1009 NOSIG
  • 240830Z 17010KT 140V210 9999 FEW025 SCT038 13/08 Q1008 NOSIG
  • 240800Z 17007KT 140V200 9999 FEW027 SCT042 13/09 Q1008 NOSIG
  • 240730Z 13008KT 080V160 9999 -RA FEW028 SCT049 12/06 Q1008 NOSIG
  • 240700Z 17008KT 140V200 9999 FEW030 SCT042 13/06 Q1008 NOSIG
  • 240630Z 17008KT 130V200 9999 FEW028 SCT038 13/07 Q1008 NOSIG
  • 240600Z 09005KT 060V150 9999 FEW030 SCT043 12/08 Q1007 NOSIG
  • 240530Z VRB03KT 9999 FEW023 SCT041 11/08 Q1007 NOSIG

TAF TAF LDDU
Valide du 24 à 06h jusqu'au 25 à 06h UTC


240525Z 2406/2506 24006KT 9999 SCT025 TX15/2411Z TN08/2504Z
PROB30
TEMPO 2409/2412 26015G25KT 3000 TSRA FEW025CB BKN030
BECMG 2412/2414 13008KT
PROB40
TEMPO 2419/2501 TSRA FEW035CB
BECMG 2500/2502 02010KT



MET'MAP, la Météo Aéronautique d'un coup d'oeil ! - Copyright ORBIFLY Décembre 2007 - Disclaimer

ORBIFLY MET'MAP TEAM :

Programmation & Développement : Alexandra Zaïnal
Sur une idée originale de : Baudouin d'Aumeries
Soutien technique & logistique : Manuel Goepfert
Assistance : Marc-Olivier Méhu




SOURCES & CREDITS :

   NOAA